createdAt,value
2022-09-07T00:01:11.615Z,69.98
2022-09-07T00:03:39.413Z,70.54
2022-09-07T00:06:13.003Z,71.23
2022-09-07T00:08:43.853Z,69.90
2022-09-07T00:11:16.834Z,70.04
2022-09-07T00:13:47.946Z,70.00
2022-09-07T00:16:30.128Z,71.45
2022-09-07T00:19:01.955Z,71.03
2022-09-07T00:21:30.211Z,70.86
2022-09-07T00:23:58.185Z,70.77
2022-09-07T00:26:29.827Z,70.90
2022-09-07T00:29:01.030Z,70.90
2022-09-07T00:31:31.191Z,71.73
2022-09-07T00:34:01.360Z,71.87
2022-09-07T00:36:29.405Z,70.32
2022-09-07T00:38:58.528Z,70.64
2022-09-07T00:41:26.607Z,71.29
2022-09-07T00:44:19.957Z,71.35
2022-09-07T00:46:47.714Z,70.46
2022-09-07T00:49:21.948Z,70.89
2022-09-07T00:52:02.922Z,71.81
2022-09-07T00:54:49.496Z,72.30
2022-09-07T00:57:17.469Z,70.99
2022-09-07T00:59:50.505Z,71.53
2022-09-07T01:02:20.340Z,70.61
2022-09-07T01:04:53.408Z,71.44
2022-09-07T01:07:21.219Z,70.87
2022-09-07T01:09:50.878Z,71.14
2022-09-07T01:12:18.647Z,71.85
2022-09-07T01:14:51.826Z,71.91
2022-09-07T01:17:40.754Z,71.43
2022-09-07T01:20:26.913Z,72.78
2022-09-07T01:23:21.542Z,73.45
2022-09-07T01:26:13.368Z,73.07
2022-09-07T01:28:42.303Z,71.96
2022-09-07T01:31:30.119Z,72.16
2022-09-07T01:34:25.345Z,71.30
2022-09-07T01:37:36.888Z,71.35
2022-09-07T01:40:23.999Z,71.24
2022-09-07T01:43:04.585Z,70.77
2022-09-07T01:45:37.531Z,71.86
2022-09-07T01:48:10.554Z,71.74
2022-09-07T01:50:51.506Z,71.42
2022-09-07T01:53:37.266Z,72.77
2022-09-07T01:56:15.190Z,72.03
2022-09-07T01:58:53.745Z,71.02
2022-09-07T02:01:38.794Z,70.90
2022-09-07T02:04:21.607Z,71.75
2022-09-07T02:07:06.730Z,71.06
2022-09-07T02:13:08.982Z,71.78
2022-09-07T02:15:51.906Z,71.88
2022-09-07T02:18:23.039Z,71.51
2022-09-07T02:20:58.056Z,72.13
2022-09-07T02:23:36.486Z,71.51
2022-09-07T02:26:13.341Z,72.14
2022-09-07T02:28:41.635Z,71.64
2022-09-07T02:31:09.782Z,71.58
2022-09-07T02:33:37.862Z,71.31
2022-09-07T02:36:07.155Z,71.61
2022-09-07T02:38:36.024Z,72.06
2022-09-07T02:41:05.463Z,72.32
2022-09-07T02:43:33.804Z,71.58
2022-09-07T02:46:13.226Z,72.86
2022-09-07T02:49:16.379Z,73.32
2022-09-07T02:52:20.730Z,73.50
2022-09-07T02:55:09.501Z,73.47
2022-09-07T02:58:14.024Z,73.54
2022-09-07T03:01:04.296Z,73.76
2022-09-07T03:04:13.510Z,73.65
2022-09-07T03:06:59.453Z,72.71
2022-09-07T03:09:32.749Z,73.59
2022-09-07T03:12:05.409Z,72.59
2022-09-07T03:14:34.447Z,72.16
2022-09-07T03:17:03.026Z,72.26
2022-09-07T03:19:30.858Z,72.00
2022-09-07T03:21:58.821Z,72.01
2022-09-07T03:24:26.580Z,72.06
2022-09-07T03:26:54.362Z,72.16
2022-09-07T03:29:22.285Z,72.47
2022-09-07T03:31:50.240Z,72.47
2022-09-07T03:34:18.080Z,72.61
2022-09-07T03:36:45.875Z,73.22
2022-09-07T03:39:14.024Z,72.93
2022-09-07T03:41:41.842Z,72.17
2022-09-07T03:44:09.721Z,72.74
2022-09-07T03:46:37.545Z,72.68
2022-09-07T03:49:05.343Z,72.44
2022-09-07T03:51:33.032Z,72.83
2022-09-07T03:54:00.809Z,72.81
2022-09-07T03:56:28.650Z,72.81
2022-09-07T03:58:56.460Z,72.38
2022-09-07T04:01:27.249Z,72.89
2022-09-07T04:04:02.151Z,73.26
2022-09-07T04:06:31.906Z,72.63
2022-09-07T04:09:10.598Z,72.78
2022-09-07T04:11:40.414Z,72.86
2022-09-07T04:14:09.935Z,72.65
2022-09-07T04:16:38.355Z,72.77
2022-09-07T04:19:06.248Z,73.01
2022-09-07T04:21:34.589Z,73.22
2022-09-07T04:24:02.767Z,73.19
2022-09-07T04:26:34.094Z,73.07
2022-09-07T04:29:02.931Z,72.77
2022-09-07T04:31:31.047Z,72.64
2022-09-07T04:33:58.816Z,73.12
2022-09-07T04:36:26.769Z,72.85
2022-09-07T04:39:04.428Z,73.08
2022-09-07T04:41:34.979Z,73.29
2022-09-07T04:44:04.893Z,73.27
2022-09-07T04:46:36.154Z,73.25
2022-09-07T04:49:09.468Z,73.02
2022-09-07T04:51:39.380Z,72.86
2022-09-07T04:54:07.444Z,73.35
2022-09-07T04:56:35.328Z,73.42
2022-09-07T04:59:04.689Z,72.88
2022-09-07T05:01:32.688Z,72.88
2022-09-07T05:04:02.342Z,73.82
2022-09-07T05:06:30.409Z,73.69
2022-09-07T05:09:00.042Z,73.78
2022-09-07T05:11:29.927Z,73.77
2022-09-07T05:14:03.751Z,73.81
2022-09-07T05:16:32.216Z,74.63
2022-09-07T05:19:03.882Z,73.48
2022-09-07T05:21:34.875Z,74.30
2022-09-07T05:24:04.365Z,73.73
2022-09-07T05:26:36.576Z,73.93
2022-09-07T05:31:54.825Z,74.18
2022-09-07T05:34:31.103Z,73.59
2022-09-07T05:37:00.181Z,73.96
2022-09-07T05:39:29.043Z,74.56
2022-09-07T05:41:56.862Z,74.94
2022-09-07T05:47:13.407Z,74.47
2022-09-07T05:49:41.170Z,74.20
2022-09-07T05:52:09.136Z,74.76
2022-09-07T05:54:36.913Z,73.35
2022-09-07T05:57:04.959Z,73.74
2022-09-07T05:59:33.420Z,73.84
2022-09-07T06:02:01.445Z,74.15
2022-09-07T06:04:29.420Z,73.40
2022-09-07T06:12:33.981Z,73.02
2022-09-07T06:15:01.788Z,73.01
2022-09-07T06:17:31.082Z,73.04
2022-09-07T06:19:58.900Z,74.05
2022-09-07T06:22:30.219Z,74.39
2022-09-07T06:24:59.240Z,73.97
2022-09-07T06:27:27.183Z,73.64
2022-09-07T06:29:55.563Z,72.86
2022-09-07T06:35:12.491Z,72.90
2022-09-07T06:37:41.482Z,73.33
2022-09-07T06:40:11.112Z,72.87
2022-09-07T06:42:39.262Z,72.62
2022-09-07T06:45:07.679Z,72.75
2022-09-07T06:47:35.551Z,72.50
2022-09-07T06:50:03.602Z,71.87
2022-09-07T06:55:19.217Z,71.69
2022-09-07T06:57:46.990Z,70.99
2022-09-07T07:00:15.278Z,70.41
2022-09-07T07:02:43.010Z,70.80
2022-09-07T07:05:10.779Z,70.71
2022-09-07T07:07:38.580Z,70.71
2022-09-07T07:10:06.884Z,69.96
2022-09-07T07:15:04.307Z,69.90
2022-09-07T07:17:32.079Z,69.33
2022-09-07T07:19:59.848Z,69.23
2022-09-07T07:22:46.173Z,68.89
2022-09-07T07:25:15.199Z,68.87
2022-09-07T07:27:43.171Z,68.08
2022-09-07T07:30:11.330Z,67.77
2022-09-07T07:32:39.875Z,67.63
2022-09-07T07:35:08.897Z,67.16
2022-09-07T07:37:37.456Z,66.89
2022-09-07T07:40:17.839Z,67.16
2022-09-07T07:42:48.210Z,67.31
2022-09-07T07:48:04.427Z,66.85
2022-09-07T07:50:34.579Z,65.90
2022-09-07T07:55:51.348Z,64.92
2022-09-07T07:58:19.645Z,64.21
2022-09-07T08:00:54.595Z,64.21
2022-09-07T08:03:24.774Z,63.94
2022-09-07T08:05:52.890Z,62.50
2022-09-07T08:08:23.683Z,63.49
2022-09-07T08:10:51.450Z,64.27
2022-09-07T08:13:19.343Z,63.62
2022-09-07T08:15:47.397Z,63.53
2022-09-07T08:18:17.554Z,63.82
2022-09-07T08:20:45.302Z,64.08
2022-09-07T08:23:14.793Z,63.79
2022-09-07T08:25:54.305Z,62.44
2022-09-07T08:28:23.651Z,63.28
2022-09-07T08:30:52.149Z,63.29
2022-09-07T08:33:20.268Z,62.33
2022-09-07T08:36:03.498Z,59.92
2022-09-07T08:38:34.197Z,61.10
2022-09-07T08:41:18.609Z,60.09
2022-09-07T08:43:57.209Z,56.24
2022-09-07T08:46:49.062Z,57.31
2022-09-07T08:49:27.188Z,56.54
2022-09-07T08:52:12.994Z,55.97
2022-09-07T08:54:45.918Z,54.70
2022-09-07T08:57:25.138Z,55.86
2022-09-07T09:00:07.866Z,53.79
2022-09-07T09:02:43.197Z,53.04
2022-09-07T09:05:23.712Z,53.40
2022-09-07T09:08:18.367Z,55.74
2022-09-07T09:10:55.443Z,51.89
2022-09-07T09:13:56.020Z,49.27
2022-09-07T09:16:55.080Z,49.19
2022-09-07T09:19:34.521Z,49.70
2022-09-07T09:22:20.725Z,44.34
2022-09-07T09:25:26.787Z,43.32
2022-09-07T09:27:54.521Z,45.60
2022-09-07T09:30:24.582Z,44.45
2022-09-07T09:33:13.535Z,43.44
2022-09-07T09:35:42.554Z,44.10
2022-09-07T09:38:43.544Z,42.51
2022-09-07T09:41:16.267Z,44.45
2022-09-07T09:43:56.809Z,44.47
2022-09-07T09:46:34.426Z,42.58
2022-09-07T09:49:28.360Z,42.71
2022-09-07T09:54:53.860Z,43.97
2022-09-07T10:01:23.107Z,41.65
2022-09-07T10:06:23.083Z,41.58
2022-09-07T10:09:02.518Z,39.26
2022-09-07T10:14:47.632Z,41.12
2022-09-07T10:17:35.681Z,40.42
2022-09-07T10:20:20.085Z,40.82
2022-09-07T10:22:53.287Z,40.36
2022-09-07T10:25:40.168Z,39.21
2022-09-07T10:28:14.244Z,39.63
2022-09-07T10:31:03.217Z,38.51
2022-09-07T10:36:57.981Z,41.51
2022-09-07T10:39:41.638Z,41.10
2022-09-07T10:42:09.393Z,40.46
2022-09-07T10:45:13.565Z,39.30
2022-09-07T10:48:06.126Z,39.64
2022-09-07T10:50:56.928Z,39.62
2022-09-07T10:57:32.350Z,38.06
2022-09-07T11:00:18.197Z,39.78
2022-09-07T11:03:25.329Z,39.32
2022-09-07T11:06:15.289Z,38.30
2022-09-07T11:12:04.279Z,38.91
2022-09-07T11:15:04.533Z,38.27
2022-09-07T11:17:50.722Z,38.47
2022-09-07T11:20:29.186Z,39.65
2022-09-07T11:23:11.319Z,38.49
2022-09-07T11:26:22.090Z,35.79
2022-09-07T11:32:21.688Z,35.85
2022-09-07T11:34:54.340Z,37.92
2022-09-07T11:37:46.868Z,36.71
2022-09-07T11:40:56.138Z,36.66
2022-09-07T11:43:46.031Z,37.18
2022-09-07T11:46:32.882Z,37.56
2022-09-07T11:49:04.473Z,36.00
2022-09-07T11:51:46.557Z,33.74
2022-09-07T11:54:32.702Z,36.73
2022-09-07T11:57:26.063Z,37.66
2022-09-07T12:00:02.396Z,39.29
2022-09-07T12:03:00.195Z,39.89
2022-09-07T12:06:11.583Z,39.01
2022-09-07T12:09:14.047Z,38.49
2022-09-07T12:12:19.825Z,38.01
2022-09-07T12:15:57.365Z,37.66
2022-09-07T12:18:31.657Z,39.88
2022-09-07T12:20:59.437Z,39.47
2022-09-07T12:23:31.716Z,40.62
2022-09-07T12:26:33.573Z,37.66
2022-09-07T12:29:01.110Z,39.01
2022-09-07T12:32:07.420Z,38.80
2022-09-07T12:34:53.460Z,38.08
2022-09-07T12:37:27.229Z,39.01
2022-09-07T12:40:34.632Z,37.75
2022-09-07T12:43:14.225Z,37.37
2022-09-07T12:45:42.299Z,37.80
2022-09-07T12:48:16.008Z,36.90
2022-09-07T12:54:23.525Z,37.57
2022-09-07T12:57:32.383Z,37.10
2022-09-07T13:00:25.655Z,37.74
2022-09-07T13:02:56.855Z,36.41
2022-09-07T13:05:56.376Z,36.82
2022-09-07T13:08:39.969Z,36.56
2022-09-07T13:11:25.745Z,36.74
2022-09-07T13:14:03.904Z,36.19
2022-09-07T13:19:53.453Z,35.53
2022-09-07T13:22:33.383Z,36.84
2022-09-07T13:25:23.749Z,36.85
2022-09-07T13:27:57.400Z,37.98
2022-09-07T13:31:07.244Z,36.74
2022-09-07T13:33:34.984Z,36.95
2022-09-07T13:36:05.335Z,36.50
2022-09-07T13:38:36.876Z,36.66
2022-09-07T13:41:32.728Z,37.05
2022-09-07T13:44:03.852Z,36.28
2022-09-07T13:47:11.632Z,36.78
2022-09-07T13:50:05.918Z,36.57
2022-09-07T13:53:13.926Z,37.40
2022-09-07T13:55:48.088Z,37.98
2022-09-07T13:58:38.010Z,37.15
2022-09-07T14:01:19.039Z,37.18
2022-09-07T14:03:53.790Z,37.10
2022-09-07T14:06:21.447Z,38.03
2022-09-07T14:08:54.131Z,37.68
2022-09-07T14:11:42.535Z,37.39
2022-09-07T14:14:17.725Z,37.29
2022-09-07T14:17:11.532Z,36.54
2022-09-07T14:19:50.782Z,37.27
2022-09-07T14:22:21.981Z,36.47
2022-09-07T14:24:54.368Z,36.27
2022-09-07T14:27:41.238Z,36.05
2022-09-07T14:30:32.092Z,34.63
2022-09-07T14:33:13.456Z,35.84
2022-09-07T14:35:42.085Z,36.14
2022-09-07T14:41:20.576Z,33.09
2022-09-07T14:43:58.351Z,32.67
2022-09-07T14:46:36.879Z,34.74
2022-09-07T14:49:21.619Z,32.57
2022-09-07T14:51:50.478Z,34.84
2022-09-07T14:54:27.405Z,34.99
2022-09-07T14:57:10.194Z,32.54
2022-09-07T14:59:46.921Z,33.85
2022-09-07T15:02:25.433Z,33.22
2022-09-07T15:05:14.977Z,31.48
2022-09-07T15:07:48.491Z,32.38
2022-09-07T15:10:41.270Z,30.90
2022-09-07T15:13:34.282Z,31.72
2022-09-07T15:16:06.216Z,34.11
2022-09-07T15:19:43.076Z,32.70
2022-09-07T15:22:13.397Z,36.56
2022-09-07T15:24:41.165Z,35.63
2022-09-07T15:27:28.879Z,30.25
2022-09-07T15:29:56.589Z,36.18
2022-09-07T15:32:24.497Z,37.90
2022-09-07T15:34:52.167Z,39.17
2022-09-07T15:40:22.530Z,42.21
2022-09-07T15:43:19.609Z,41.55
2022-09-07T15:45:39.688Z,42.26
2022-09-07T15:48:07.657Z,42.66
2022-09-07T15:50:35.301Z,43.00
2022-09-07T15:53:03.344Z,43.74
2022-09-07T15:55:31.084Z,44.32
2022-09-07T15:58:11.043Z,44.97
2022-09-07T16:00:40.099Z,45.37
2022-09-07T16:03:08.559Z,45.49
2022-09-07T16:05:44.133Z,46.23
2022-09-07T16:08:32.717Z,45.99
2022-09-07T16:11:18.707Z,47.16
2022-09-07T16:13:48.128Z,47.13
2022-09-07T16:16:16.432Z,47.23
2022-09-07T16:18:46.690Z,46.96
2022-09-07T16:21:15.778Z,47.49
2022-09-07T16:23:48.928Z,48.27
2022-09-07T16:26:20.823Z,48.76
2022-09-07T16:28:52.626Z,49.18
2022-09-07T16:31:27.477Z,49.63
2022-09-07T16:33:55.287Z,49.24
2022-09-07T16:36:23.721Z,49.31
2022-09-07T16:39:00.455Z,50.23
2022-09-07T16:41:31.845Z,49.79
2022-09-07T16:43:59.664Z,49.94
2022-09-07T16:46:34.913Z,51.34
2022-09-07T16:49:04.148Z,50.95
2022-09-07T16:51:32.048Z,51.75
2022-09-07T16:54:00.685Z,52.45
2022-09-07T16:56:34.570Z,53.43
2022-09-07T16:59:07.126Z,56.06
2022-09-07T17:01:40.395Z,54.98
2022-09-07T17:04:11.311Z,54.33
2022-09-07T17:06:40.515Z,54.06
2022-09-07T17:09:08.393Z,54.22
2022-09-07T17:11:37.371Z,56.53
2022-09-07T17:14:06.731Z,57.33
2022-09-07T17:16:39.109Z,59.16
2022-09-07T17:22:00.013Z,57.06
2022-09-07T17:24:27.950Z,57.16
2022-09-07T18:01:50.902Z,63.72
2022-09-07T18:04:18.820Z,63.38
2022-09-07T18:06:46.562Z,64.36
2022-09-07T18:09:14.514Z,64.56
2022-09-07T18:11:45.757Z,65.16
2022-09-07T18:14:15.296Z,65.75
2022-09-07T18:16:46.142Z,64.25
2022-09-07T18:19:14.316Z,64.81
2022-09-07T18:21:44.006Z,64.52
2022-09-07T18:24:22.987Z,64.31
2022-09-07T18:26:53.863Z,62.99
2022-09-07T18:29:32.481Z,63.56
2022-09-07T18:32:05.694Z,62.93
2022-09-07T18:34:37.698Z,63.65
2022-09-07T18:37:06.742Z,63.73
2022-09-07T18:39:35.826Z,63.69
2022-09-07T18:42:04.158Z,65.80
2022-09-07T18:47:27.841Z,65.44
2022-09-07T18:49:57.343Z,64.05
2022-09-07T18:55:14.151Z,65.27
2022-09-07T18:57:42.913Z,66.65
2022-09-07T19:00:12.977Z,66.78
2022-09-07T19:02:41.007Z,65.90
2022-09-07T19:07:57.000Z,67.32
2022-09-07T19:10:24.785Z,67.25
2022-09-07T19:12:52.754Z,66.91
2022-09-07T19:15:20.886Z,66.32
2022-09-07T19:17:48.720Z,66.78
2022-09-07T19:20:17.572Z,66.05
2022-09-07T19:22:45.239Z,66.50
2022-09-07T19:25:12.937Z,66.78
2022-09-07T19:27:40.662Z,67.20
2022-09-07T19:30:09.346Z,67.23
2022-09-07T19:32:38.257Z,67.61
2022-09-07T19:35:06.108Z,67.54
2022-09-07T19:37:33.781Z,67.84
2022-09-07T19:40:02.074Z,67.96
2022-09-07T19:42:30.047Z,68.02
2022-09-07T19:44:57.701Z,68.67
2022-09-07T19:47:25.341Z,68.28
2022-09-07T19:49:53.017Z,68.08
2022-09-07T19:52:20.703Z,68.00
2022-09-07T19:54:48.423Z,68.52
2022-09-07T19:57:16.077Z,68.84
2022-09-07T19:59:45.712Z,69.04
2022-09-07T20:02:13.485Z,68.91
2022-09-07T20:04:41.224Z,68.90
2022-09-07T20:07:09.008Z,68.19
2022-09-07T20:09:36.887Z,67.91
2022-09-07T20:12:06.783Z,67.53
2022-09-07T20:14:34.603Z,71.48
2022-09-07T20:17:02.457Z,68.94
2022-09-07T20:19:30.164Z,67.98
2022-09-07T20:21:57.975Z,70.03
2022-09-07T20:24:25.808Z,68.80
2022-09-07T20:26:53.616Z,69.06
2022-09-07T20:29:27.903Z,69.04
2022-09-07T20:31:59.355Z,69.14
2022-09-07T20:34:28.995Z,69.49
2022-09-07T20:36:57.031Z,70.07
2022-09-07T20:39:25.043Z,69.94
2022-09-07T20:41:53.092Z,68.94
2022-09-07T20:44:20.763Z,68.90
2022-09-07T20:46:48.597Z,70.23
2022-09-07T20:49:16.428Z,70.97
2022-09-07T20:51:44.150Z,70.77
2022-09-07T20:54:11.910Z,70.57
2022-09-07T20:56:39.630Z,70.93
2022-09-07T20:59:07.313Z,71.03
2022-09-07T21:01:35.373Z,70.65
2022-09-07T21:04:04.153Z,70.13
2022-09-07T21:06:33.241Z,71.30
2022-09-07T21:09:01.528Z,71.62
2022-09-07T21:11:33.596Z,72.00
2022-09-07T21:14:12.506Z,72.61
2022-09-07T21:16:40.873Z,71.10
2022-09-07T21:19:13.144Z,71.38
2022-09-07T21:21:42.893Z,71.09
2022-09-07T21:24:28.432Z,73.75
2022-09-07T21:26:56.057Z,71.67
2022-09-07T21:29:25.752Z,72.14
2022-09-07T21:31:54.622Z,71.37
2022-09-07T21:34:23.297Z,71.45
2022-09-07T21:36:52.028Z,71.92
2022-09-07T21:39:20.867Z,71.79
2022-09-07T21:41:48.539Z,72.29
2022-09-07T21:44:16.774Z,72.71
2022-09-07T21:46:45.040Z,72.61
2022-09-07T21:49:12.742Z,72.19
2022-09-07T21:51:40.461Z,72.35
2022-09-07T21:54:08.276Z,72.20
2022-09-07T21:56:36.723Z,72.35
2022-09-07T21:59:05.216Z,71.98
2022-09-07T22:01:33.620Z,72.85
2022-09-07T22:04:04.934Z,72.77
2022-09-07T22:06:34.260Z,72.90
2022-09-07T22:09:04.065Z,73.05
2022-09-07T22:11:32.711Z,72.53
2022-09-07T22:14:04.259Z,72.93
2022-09-07T22:16:35.276Z,72.67
2022-09-07T22:19:03.499Z,71.59
2022-09-07T22:21:31.598Z,71.17
2022-09-07T22:24:03.937Z,72.61
2022-09-07T22:26:39.545Z,72.39
2022-09-07T22:29:12.105Z,72.29
2022-09-07T22:31:40.267Z,72.66
2022-09-07T22:34:09.506Z,72.80
2022-09-07T22:36:43.299Z,73.44
2022-09-07T22:39:18.505Z,73.06
2022-09-07T22:41:47.696Z,72.77
2022-09-07T22:44:18.629Z,72.55
2022-09-07T22:46:47.749Z,72.25
2022-09-07T22:49:17.145Z,72.97
2022-09-07T22:51:45.650Z,72.75
2022-09-07T22:54:13.690Z,73.72
2022-09-07T22:56:41.698Z,73.05
2022-09-07T22:59:10.460Z,73.03
2022-09-07T23:01:38.819Z,73.77
2022-09-07T23:04:07.942Z,74.07
2022-09-07T23:06:38.741Z,73.67
2022-09-07T23:09:18.221Z,75.26
2022-09-07T23:11:47.849Z,73.03
2022-09-07T23:14:22.202Z,74.99
2022-09-07T23:26:38.274Z,74.79
2022-09-07T23:29:06.660Z,74.14
2022-09-07T23:31:35.455Z,73.84
2022-09-07T23:34:04.138Z,73.90
2022-09-07T23:36:32.319Z,73.18
2022-09-07T23:39:01.237Z,74.16
2022-09-07T23:41:29.071Z,73.77
2022-09-07T23:43:57.740Z,73.86
2022-09-07T23:46:25.771Z,73.67
2022-09-07T23:48:53.559Z,73.73
2022-09-07T23:51:24.312Z,72.78
2022-09-07T23:53:53.526Z,72.60
2022-09-07T23:56:24.466Z,73.79
2022-09-07T23:58:52.362Z,72.58
